createdAt,value
2023-02-27T00:01:29.264Z,6.90
2023-02-27T00:06:58.599Z,7.15
2023-02-27T00:12:24.368Z,7.72
2023-02-27T00:17:50.205Z,7.10
2023-02-27T00:23:15.815Z,8.13
2023-02-27T00:28:40.025Z,8.85
2023-02-27T00:34:10.368Z,7.70
2023-02-27T00:39:38.960Z,7.88
2023-02-27T00:45:09.323Z,7.17
2023-02-27T00:50:39.734Z,6.43
2023-02-27T00:56:03.107Z,7.30
2023-02-27T01:01:30.080Z,10.70
2023-02-27T01:06:58.375Z,12.75
2023-02-27T01:12:22.200Z,13.73
2023-02-27T01:17:51.556Z,11.65
2023-02-27T01:23:19.176Z,10.30
2023-02-27T01:28:48.354Z,10.05
2023-02-27T01:34:11.864Z,9.07
2023-02-27T01:39:43.611Z,6.85
2023-02-27T01:45:32.070Z,7.68
2023-02-27T01:51:00.057Z,9.07
2023-02-27T01:56:28.067Z,15.77
2023-02-27T02:01:58.624Z,20.27
2023-02-27T02:07:30.973Z,14.35
2023-02-27T02:12:56.496Z,10.40
2023-02-27T02:18:35.147Z,9.07
2023-02-27T02:24:29.560Z,8.57
2023-02-27T02:30:38.207Z,10.05
2023-02-27T02:36:56.273Z,12.45
2023-02-27T02:42:28.320Z,14.82
2023-02-27T02:48:04.769Z,12.98
2023-02-27T02:53:43.348Z,11.93
2023-02-27T02:59:18.514Z,10.57
2023-02-27T03:04:49.437Z,13.70
2023-02-27T03:10:20.514Z,14.52
2023-02-27T03:15:49.237Z,8.40
2023-02-27T03:21:23.800Z,8.10
2023-02-27T03:26:52.933Z,7.88
2023-02-27T03:32:30.227Z,5.85
2023-02-27T03:38:02.638Z,8.10
2023-02-27T03:43:32.620Z,6.78
2023-02-27T03:49:03.188Z,9.30
2023-02-27T03:54:37.775Z,14.18
2023-02-27T04:00:15.115Z,11.80
2023-02-27T04:05:40.262Z,7.68
2023-02-27T04:11:20.377Z,8.32
2023-02-27T04:17:03.648Z,8.18
2023-02-27T04:22:36.981Z,8.35
2023-02-27T04:28:12.254Z,7.50
2023-02-27T04:33:46.484Z,7.60
2023-02-27T04:39:24.267Z,8.30
2023-02-27T04:44:57.699Z,8.98
2023-02-27T04:50:31.088Z,8.73
2023-02-27T04:56:02.621Z,9.80
2023-02-27T05:01:31.993Z,10.25
2023-02-27T05:07:03.292Z,10.00
2023-02-27T05:12:39.892Z,10.13
2023-02-27T05:18:11.917Z,9.63
2023-02-27T05:23:47.860Z,9.45
2023-02-27T05:29:22.936Z,11.65
2023-02-27T05:34:51.993Z,10.32
2023-02-27T05:40:20.540Z,10.95
2023-02-27T05:45:49.410Z,10.30
2023-02-27T05:51:16.419Z,9.75
2023-02-27T05:56:42.712Z,10.40
2023-02-27T06:02:08.131Z,10.20
2023-02-27T06:07:33.207Z,9.68
2023-02-27T06:12:57.915Z,10.70
2023-02-27T06:18:28.484Z,10.75
2023-02-27T06:23:52.555Z,12.30
2023-02-27T06:29:17.528Z,13.73
2023-02-27T06:34:43.953Z,17.08
2023-02-27T06:40:11.589Z,17.67
2023-02-27T06:45:35.473Z,13.55
2023-02-27T06:51:00.712Z,14.20
2023-02-27T06:56:24.128Z,16.88
2023-02-27T07:01:48.380Z,17.13
2023-02-27T07:07:32.284Z,14.70
2023-02-27T07:12:55.525Z,13.75
2023-02-27T07:18:21.382Z,13.20
2023-02-27T07:23:51.774Z,17.15
2023-02-27T07:29:20.905Z,34.55
2023-02-27T07:34:47.937Z,18.30
2023-02-27T07:40:15.535Z,15.20
2023-02-27T07:45:44.118Z,17.67
2023-02-27T07:51:13.528Z,22.90
2023-02-27T07:56:44.270Z,33.42
2023-02-27T08:02:13.907Z,30.83
2023-02-27T08:07:38.107Z,34.22
2023-02-27T08:13:03.856Z,26.55
2023-02-27T08:18:34.938Z,25.67
2023-02-27T08:24:04.699Z,25.52
2023-02-27T08:29:31.039Z,29.88
2023-02-27T08:34:55.049Z,33.83
2023-02-27T08:40:18.812Z,32.30
2023-02-27T08:45:50.106Z,21.67
2023-02-27T08:51:15.759Z,23.58
2023-02-27T08:56:44.322Z,25.17
2023-02-27T09:02:14.634Z,25.43
2023-02-27T09:07:37.606Z,24.95
2023-02-27T09:13:06.592Z,25.17
2023-02-27T09:18:31.477Z,26.50
2023-02-27T09:24:10.124Z,26.75
2023-02-27T09:29:42.574Z,26.40
2023-02-27T09:35:11.022Z,25.70
2023-02-27T09:40:41.837Z,26.67
2023-02-27T09:46:16.892Z,25.27
2023-02-27T09:51:47.141Z,21.13
2023-02-27T09:57:20.682Z,21.40
2023-02-27T10:02:57.647Z,29.77
2023-02-27T10:08:35.673Z,20.70
2023-02-27T10:14:04.654Z,24.00
2023-02-27T10:19:38.395Z,15.05
2023-02-27T10:25:29.904Z,20.13
2023-02-27T10:30:58.663Z,19.15
2023-02-27T10:36:34.119Z,19.52
2023-02-27T10:42:06.806Z,21.15
2023-02-27T10:47:31.268Z,23.35
2023-02-27T10:52:58.475Z,27.90
2023-02-27T10:58:23.653Z,27.50
2023-02-27T11:03:57.404Z,26.73
2023-02-27T11:09:27.915Z,28.08
2023-02-27T11:15:01.310Z,27.52
2023-02-27T11:20:36.933Z,24.25
2023-02-27T11:26:12.211Z,17.75
2023-02-27T11:31:47.480Z,18.38
2023-02-27T11:37:25.161Z,19.40
2023-02-27T11:42:57.289Z,19.23
2023-02-27T11:48:30.091Z,18.42
2023-02-27T11:54:09.518Z,17.77
2023-02-27T11:59:44.232Z,19.75
2023-02-27T12:05:17.021Z,20.85
2023-02-27T12:10:50.778Z,16.67
2023-02-27T12:16:27.002Z,14.63
2023-02-27T12:21:59.327Z,16.45
2023-02-27T12:27:26.919Z,19.33
2023-02-27T12:33:03.331Z,16.73
2023-02-27T12:38:29.268Z,18.95
2023-02-27T12:44:03.007Z,17.02
2023-02-27T12:49:38.850Z,16.88
2023-02-27T12:55:16.706Z,17.95
2023-02-27T13:00:51.474Z,15.13
2023-02-27T13:06:28.124Z,14.55
2023-02-27T13:12:04.709Z,15.40
2023-02-27T13:17:36.077Z,14.77
2023-02-27T13:23:14.526Z,13.18
2023-02-27T13:28:46.160Z,11.88
2023-02-27T13:34:17.881Z,15.57
2023-02-27T13:39:53.764Z,16.10
2023-02-27T13:45:57.588Z,14.13
2023-02-27T13:51:47.101Z,13.35
2023-02-27T13:57:26.030Z,15.05
2023-02-27T14:03:00.585Z,14.35
2023-02-27T14:08:30.792Z,15.02
2023-02-27T14:14:08.390Z,17.45
2023-02-27T14:19:59.482Z,14.82
2023-02-27T14:25:34.638Z,16.17
2023-02-27T14:31:02.237Z,13.60
2023-02-27T14:36:29.151Z,13.20
2023-02-27T14:42:19.409Z,11.98
2023-02-27T14:47:48.679Z,11.75
2023-02-27T14:53:24.677Z,11.35
2023-02-27T14:59:03.675Z,10.32
2023-02-27T15:04:34.731Z,9.32
2023-02-27T15:10:38.517Z,9.10
2023-02-27T15:16:20.990Z,9.70
2023-02-27T15:21:45.293Z,8.77
2023-02-27T15:27:15.391Z,8.65
2023-02-27T15:32:43.030Z,9.35
2023-02-27T15:38:24.062Z,10.77
2023-02-27T15:43:54.569Z,9.10
2023-02-27T15:49:24.707Z,9.10
2023-02-27T15:54:54.329Z,7.03
2023-02-27T16:00:24.114Z,6.50
2023-02-27T16:05:53.546Z,6.43
2023-02-27T16:11:20.182Z,7.50
2023-02-27T16:16:57.042Z,8.18
2023-02-27T16:22:24.921Z,7.32
2023-02-27T16:27:53.596Z,6.50
2023-02-27T16:33:24.147Z,6.72
2023-02-27T16:38:50.657Z,6.13
2023-02-27T16:44:18.518Z,6.97
2023-02-27T16:49:44.455Z,6.40
2023-02-27T16:55:13.743Z,6.20
2023-02-27T17:00:42.680Z,7.00
2023-02-27T17:06:14.150Z,6.63
2023-02-27T17:11:42.248Z,5.65
2023-02-27T17:17:11.376Z,5.15
2023-02-27T17:22:38.458Z,5.65
2023-02-27T17:28:07.538Z,7.70
2023-02-27T17:33:31.804Z,7.05
2023-02-27T17:44:40.348Z,6.18
2023-02-27T17:50:04.141Z,5.90
2023-02-27T17:55:32.406Z,6.43
2023-02-27T18:01:06.506Z,7.15
2023-02-27T18:06:35.961Z,8.05
2023-02-27T18:11:59.462Z,6.18
2023-02-27T18:17:25.939Z,6.47
2023-02-27T18:22:49.469Z,6.25
2023-02-27T18:28:14.151Z,8.32
2023-02-27T18:33:38.659Z,9.43
2023-02-27T18:39:07.904Z,9.70
2023-02-27T18:44:31.293Z,9.68
2023-02-27T18:50:01.264Z,7.63
2023-02-27T18:55:29.536Z,6.03
2023-02-27T19:00:56.673Z,6.63
2023-02-27T19:06:27.074Z,5.97
2023-02-27T19:11:49.844Z,5.70
2023-02-27T19:17:13.258Z,5.90
2023-02-27T19:22:42.602Z,5.72
2023-02-27T19:28:12.302Z,5.93
2023-02-27T19:33:40.129Z,5.20
2023-02-27T19:39:05.992Z,4.68
2023-02-27T19:44:28.993Z,3.85
2023-02-27T19:49:52.334Z,4.40
2023-02-27T19:55:16.742Z,4.13
2023-02-27T20:00:45.548Z,4.30
2023-02-27T20:06:16.176Z,4.57
2023-02-27T20:17:04.743Z,4.00
2023-02-27T20:22:30.306Z,3.70
2023-02-27T20:27:55.463Z,3.97
2023-02-27T20:33:25.707Z,4.07
2023-02-27T20:38:52.681Z,3.40
2023-02-27T20:44:21.023Z,4.93
2023-02-27T20:49:51.121Z,3.77
2023-02-27T20:55:19.680Z,5.47
2023-02-27T21:00:43.720Z,3.33
2023-02-27T21:06:08.975Z,3.97
2023-02-27T21:11:32.979Z,4.05
2023-02-27T21:16:55.758Z,4.30
2023-02-27T21:22:19.929Z,4.72
2023-02-27T21:27:43.003Z,4.70
2023-02-27T21:33:06.451Z,4.75
2023-02-27T21:38:30.990Z,5.03
2023-02-27T21:43:57.970Z,4.50
2023-02-27T21:49:22.574Z,5.40
2023-02-27T21:54:47.143Z,5.82
2023-02-27T22:00:11.607Z,5.80
2023-02-27T22:05:34.419Z,5.57
2023-02-27T22:10:59.207Z,6.57
2023-02-27T22:16:22.447Z,6.57
2023-02-27T22:21:44.922Z,7.30
2023-02-27T22:27:09.343Z,8.27
2023-02-27T22:32:32.253Z,8.10
2023-02-27T22:37:55.111Z,9.70
2023-02-27T22:43:19.542Z,11.48
2023-02-27T22:48:43.319Z,11.38
2023-02-27T22:54:07.414Z,12.30
2023-02-27T22:59:31.300Z,11.75
2023-02-27T23:04:53.797Z,11.48
2023-02-27T23:10:16.673Z,12.77
2023-02-27T23:15:41.104Z,13.70
2023-02-27T23:21:04.957Z,12.68
2023-02-27T23:26:28.480Z,13.65
2023-02-27T23:31:53.838Z,13.02
2023-02-27T23:37:16.694Z,13.18
2023-02-27T23:42:40.298Z,12.70
2023-02-27T23:48:05.392Z,12.98
2023-02-27T23:53:30.131Z,12.73
2023-02-27T23:58:55.064Z,12.82
